Time;durP1;ratioP1;P1;durP2;ratioP2;P2;SDS_P1;SDS_P2;PMS_P1;PMS_P2;Temp;Humidity;BMP_temperature;BMP_pressure;BME280_temperature;BME280_humidity;BME280_pressure;Samples;Min_cycle;Max_cycle;Signal;HPM_P1;HPM_P2
2023/09/03 00:02:20;;;;;;;4.13;3.00;;;;;;;;;;5119269;28;20569;-76
2023/09/03 00:04:48;;;;;;;5.67;2.87;;;;;;;;;;5119576;28;20214;-76
2023/09/03 00:07:16;;;;;;;3.50;2.77;;;;;;;;;;5119418;28;20202;-76
2023/09/03 00:09:44;;;;;;;4.07;2.93;;;;;;;;;;5118852;28;20666;-77
2023/09/03 00:12:13;;;;;;;3.33;2.80;;;;;;;;;;5119491;28;20198;-75
2023/09/03 00:14:41;;;;;;;5.80;3.23;;;;;;;;;;5119126;28;20220;-77
2023/09/03 00:17:13;;;;;;;3.53;3.00;;;;;;;;;;5119045;28;20212;-75
2023/09/03 00:19:43;;;;;;;4.50;2.60;;;;;;;;;;5118916;28;20203;-77
2023/09/03 00:22:11;;;;;;;4.50;2.67;;;;;;;;;;5118993;28;20227;-77
2023/09/03 00:24:39;;;;;;;7.23;2.80;;;;;;;;;;5118751;28;20219;-77
2023/09/03 00:27:07;;;;;;;6.33;3.57;;;;;;;;;;5118767;28;20597;-75
2023/09/03 00:29:36;;;;;;;5.17;3.53;;;;;;;;;;5118914;28;20672;-76
2023/09/03 00:32:04;;;;;;;4.93;2.93;;;;;;;;;;5116061;28;20205;-77
2023/09/03 00:34:32;;;;;;;5.00;2.90;;;;;;;;;;5118818;28;20208;-77
2023/09/03 00:37:02;;;;;;;3.83;2.93;;;;;;;;;;5118600;28;20234;-75
2023/09/03 00:39:30;;;;;;;4.47;3.20;;;;;;;;;;5118383;28;20237;-77
2023/09/03 00:41:58;;;;;;;4.70;2.67;;;;;;;;;;5105291;28;20231;-76
2023/09/03 00:44:26;;;;;;;3.83;3.10;;;;;;;;;;5118789;28;20209;-76
2023/09/03 00:46:54;;;;;;;4.63;3.00;;;;;;;;;;5118499;28;20201;-77
2023/09/03 00:49:23;;;;;;;3.03;2.70;;;;;;;;;;5118585;28;20250;-76
2023/09/03 00:51:51;;;;;;;5.03;3.13;;;;;;;;;;5118654;28;20219;-75
2023/09/03 00:54:22;;;;;;;4.40;3.10;;;;;;;;;;5118217;28;20215;-75
2023/09/03 00:56:50;;;;;;;3.40;3.10;;;;;;;;;;5118455;28;20687;-75
2023/09/03 00:59:19;;;;;;;4.27;2.90;;;;;;;;;;5118559;28;20224;-76
2023/09/03 01:01:48;;;;;;;7.03;3.03;;;;;;;;;;5117974;28;20712;-76
2023/09/03 01:04:18;;;;;;;7.07;2.70;;;;;;;;;;5117954;28;20214;-76
2023/09/03 01:06:48;;;;;;;4.77;3.10;;;;;;;;;;5118250;28;20199;-77
2023/09/03 01:09:17;;;;;;;3.40;2.57;;;;;;;;;;5121156;28;20210;-76
2023/09/03 01:11:50;;;;;;;4.73;3.17;;;;;;;;;;5125248;27;20222;-77
2023/09/03 01:14:24;;;;;;;5.13;3.20;;;;;;;;;;5125050;27;20206;-76
2023/09/03 01:16:55;;;;;;;3.80;2.93;;;;;;;;;;5125116;27;20207;-76
2023/09/03 01:19:37;;;;;;;3.07;2.53;;;;;;;;;;5124693;27;20204;-76
2023/09/03 01:22:07;;;;;;;4.40;3.03;;;;;;;;;;5125134;27;20230;-77
2023/09/03 01:24:44;;;;;;;4.47;2.93;;;;;;;;;;5124860;27;20212;-75
2023/09/03 01:27:20;;;;;;;8.03;3.20;;;;;;;;;;5124959;27;20691;-77
2023/09/03 01:29:50;;;;;;;4.47;3.03;;;;;;;;;;5124948;28;20214;-77
2023/09/03 01:32:18;;;;;;;4.40;3.10;;;;;;;;;;5122540;27;20203;-76
2023/09/03 01:34:47;;;;;;;5.13;2.93;;;;;;;;;;5124551;27;20564;-76
2023/09/03 01:37:15;;;;;;;3.83;3.50;;;;;;;;;;5125085;27;20658;-77
2023/09/03 01:39:43;;;;;;;4.83;3.17;;;;;;;;;;5124187;27;20208;-77
2023/09/03 01:42:12;;;;;;;4.70;2.93;;;;;;;;;;5124852;28;20231;-77
2023/09/03 01:44:43;;;;;;;7.07;3.33;;;;;;;;;;5124202;27;20200;-77
2023/09/03 01:47:15;;;;;;;5.77;3.30;;;;;;;;;;5125077;28;20236;-76
2023/09/03 01:49:48;;;;;;;7.13;3.50;;;;;;;;;;5124759;27;20212;-72
2023/09/03 01:52:22;;;;;;;4.07;3.50;;;;;;;;;;5124900;27;20221;-75
2023/09/03 01:54:51;;;;;;;6.00;3.23;;;;;;;;;;5124521;27;20214;-77
2023/09/03 01:57:21;;;;;;;4.63;3.20;;;;;;;;;;5123992;28;20231;-77
2023/09/03 01:59:50;;;;;;;4.33;3.30;;;;;;;;;;5122224;28;20202;-76
2023/09/03 02:02:20;;;;;;;5.20;3.60;;;;;;;;;;5121674;28;20239;-76
2023/09/03 02:04:48;;;;;;;6.00;3.63;;;;;;;;;;5124473;27;20278;-78
2023/09/03 02:07:16;;;;;;;5.30;3.43;;;;;;;;;;5121393;28;20201;-77
2023/09/03 02:09:44;;;;;;;6.67;3.40;;;;;;;;;;5121931;28;20208;-75
2023/09/03 02:12:12;;;;;;;4.40;3.07;;;;;;;;;;5124111;27;20259;-75
2023/09/03 02:14:40;;;;;;;5.13;3.57;;;;;;;;;;5124197;28;20242;-74
2023/09/03 02:17:09;;;;;;;5.47;2.90;;;;;;;;;;5123847;27;20204;-73
2023/09/03 02:19:38;;;;;;;3.20;2.90;;;;;;;;;;5124148;28;20272;-77
2023/09/03 02:22:06;;;;;;;4.40;3.27;;;;;;;;;;5119861;28;20361;-76
2023/09/03 02:24:34;;;;;;;5.43;3.30;;;;;;;;;;5118115;28;20203;-78
2023/09/03 02:27:02;;;;;;;4.60;3.07;;;;;;;;;;5120942;28;20206;-77
2023/09/03 02:29:30;;;;;;;6.47;3.27;;;;;;;;;;5120807;28;20211;-77
2023/09/03 02:31:58;;;;;;;6.43;3.30;;;;;;;;;;5120342;28;20226;-78
2023/09/03 02:34:26;;;;;;;7.00;3.33;;;;;;;;;;5121103;28;20580;-76
2023/09/03 02:36:55;;;;;;;5.90;2.57;;;;;;;;;;5120490;28;20202;-76
2023/09/03 02:39:23;;;;;;;7.73;2.73;;;;;;;;;;5120407;28;20197;-76
2023/09/03 02:41:52;;;;;;;6.23;3.03;;;;;;;;;;5119226;28;20630;-76
2023/09/03 02:44:20;;;;;;;6.23;3.13;;;;;;;;;;5121184;28;20202;-76
2023/09/03 02:46:48;;;;;;;5.60;3.30;;;;;;;;;;5117888;28;20196;-76
2023/09/03 02:49:16;;;;;;;7.60;3.77;;;;;;;;;;5120701;28;20204;-76
2023/09/03 02:51:45;;;;;;;8.47;3.00;;;;;;;;;;5120788;28;20215;-76
2023/09/03 02:54:15;;;;;;;5.23;3.10;;;;;;;;;;5119945;28;20211;-76
2023/09/03 02:56:43;;;;;;;4.87;3.17;;;;;;;;;;5120367;28;20269;-76
2023/09/03 02:59:11;;;;;;;3.07;2.77;;;;;;;;;;5120251;28;20284;-76
2023/09/03 03:01:39;;;;;;;4.90;3.40;;;;;;;;;;5120229;28;20289;-76
2023/09/03 03:04:07;;;;;;;5.80;3.20;;;;;;;;;;5120182;28;20201;-76
2023/09/03 03:06:35;;;;;;;4.83;3.57;;;;;;;;;;5120255;28;20210;-76
2023/09/03 03:09:04;;;;;;;3.30;3.00;;;;;;;;;;5119933;28;20204;-76
2023/09/03 03:11:34;;;;;;;4.00;3.17;;;;;;;;;;5120510;28;20221;-77
2023/09/03 03:14:02;;;;;;;3.87;3.13;;;;;;;;;;5120294;28;20250;-76
2023/09/03 03:16:30;;;;;;;4.63;2.87;;;;;;;;;;5120014;27;20273;-76
2023/09/03 03:18:58;;;;;;;5.33;3.10;;;;;;;;;;5120062;28;20201;-76
2023/09/03 03:21:26;;;;;;;5.63;4.40;;;;;;;;;;5120257;28;20691;-76
2023/09/03 03:23:54;;;;;;;3.37;2.90;;;;;;;;;;5119491;28;20232;-76
2023/09/03 03:26:22;;;;;;;5.80;3.60;;;;;;;;;;5120121;28;20205;-76
2023/09/03 03:28:52;;;;;;;3.43;2.90;;;;;;;;;;5119869;28;20247;-76
2023/09/03 03:31:20;;;;;;;3.50;2.93;;;;;;;;;;5119830;28;20267;-76
2023/09/03 03:33:48;;;;;;;5.23;3.30;;;;;;;;;;5118820;28;20228;-76
2023/09/03 03:36:17;;;;;;;6.13;3.33;;;;;;;;;;5119800;28;20235;-76
2023/09/03 03:38:45;;;;;;;5.93;4.10;;;;;;;;;;5119688;28;20205;-76
2023/09/03 03:41:16;;;;;;;3.77;2.90;;;;;;;;;;5119472;28;20703;-77
2023/09/03 03:43:45;;;;;;;4.67;3.00;;;;;;;;;;5119812;28;20225;-76
2023/09/03 03:46:15;;;;;;;4.03;3.00;;;;;;;;;;5119858;28;20204;-76
2023/09/03 03:48:43;;;;;;;4.43;2.93;;;;;;;;;;5120178;28;20293;-76
2023/09/03 03:51:11;;;;;;;6.40;3.53;;;;;;;;;;5119544;28;20228;-76
2023/09/03 03:53:40;;;;;;;5.47;3.50;;;;;;;;;;5118986;28;20684;-76
2023/09/03 03:56:08;;;;;;;6.37;3.53;;;;;;;;;;5119727;28;20267;-76
2023/09/03 03:58:37;;;;;;;4.93;3.60;;;;;;;;;;5119541;28;20215;-76
2023/09/03 04:01:11;;;;;;;4.50;3.60;;;;;;;;;;5116630;28;20723;-76
2023/09/03 04:03:41;;;;;;;6.33;3.33;;;;;;;;;;5119028;28;20245;-76
2023/09/03 04:06:09;;;;;;;4.20;2.87;;;;;;;;;;5119270;28;20220;-76
2023/09/03 04:08:38;;;;;;;6.47;3.40;;;;;;;;;;5118753;28;20730;-76
2023/09/03 04:11:07;;;;;;;4.90;3.67;;;;;;;;;;5119008;28;20226;-75
2023/09/03 04:13:35;;;;;;;7.23;3.50;;;;;;;;;;5118972;28;20564;-76
2023/09/03 04:16:06;;;;;;;4.00;3.53;;;;;;;;;;5119319;28;20209;-76
2023/09/03 04:18:35;;;;;;;3.90;3.53;;;;;;;;;;5119236;27;20204;-76
2023/09/03 04:21:04;;;;;;;4.77;3.70;;;;;;;;;;5119119;28;20225;-76
2023/09/03 04:23:32;;;;;;;3.73;3.43;;;;;;;;;;5118586;28;20232;-76
2023/09/03 04:26:00;;;;;;;3.10;2.83;;;;;;;;;;5118813;28;20660;-76
2023/09/03 04:28:28;;;;;;;3.83;3.10;;;;;;;;;;5118964;28;20219;-76
2023/09/03 04:30:57;;;;;;;4.07;2.97;;;;;;;;;;5118909;28;20221;-76
2023/09/03 04:33:25;;;;;;;8.53;3.17;;;;;;;;;;5116105;28;20724;-76
2023/09/03 04:35:55;;;;;;;4.67;3.27;;;;;;;;;;5118678;28;20678;-76
2023/09/03 04:38:25;;;;;;;5.50;3.53;;;;;;;;;;5118469;28;20201;-76
2023/09/03 04:40:53;;;;;;;5.30;3.03;;;;;;;;;;5118707;28;20227;-76
2023/09/03 04:43:21;;;;;;;6.03;4.33;;;;;;;;;;5118056;28;20227;-76
2023/09/03 04:45:49;;;;;;;5.17;3.40;;;;;;;;;;5118447;28;20202;-75
2023/09/03 04:48:17;;;;;;;4.77;3.70;;;;;;;;;;5118853;28;20277;-75
2023/09/03 04:50:46;;;;;;;4.13;3.30;;;;;;;;;;5118526;28;20225;-75
2023/09/03 04:53:14;;;;;;;6.73;3.77;;;;;;;;;;5118311;28;20207;-76
2023/09/03 04:55:44;;;;;;;4.43;3.87;;;;;;;;;;5118675;28;20212;-75
2023/09/03 04:58:12;;;;;;;4.37;3.70;;;;;;;;;;5118389;28;20648;-76
2023/09/03 05:00:40;;;;;;;5.07;3.50;;;;;;;;;;5118129;28;20714;-75
2023/09/03 05:03:08;;;;;;;5.63;4.03;;;;;;;;;;5118144;28;20633;-75
2023/09/03 05:05:40;;;;;;;6.90;4.03;;;;;;;;;;5118466;28;20209;-75
2023/09/03 05:08:08;;;;;;;4.07;3.60;;;;;;;;;;5118182;28;20201;-75
2023/09/03 05:10:36;;;;;;;6.13;4.13;;;;;;;;;;5118270;28;20227;-75
2023/09/03 05:13:05;;;;;;;5.83;3.40;;;;;;;;;;5118264;28;20668;-76
2023/09/03 05:15:34;;;;;;;5.57;3.70;;;;;;;;;;5118320;28;20211;-75
2023/09/03 05:18:02;;;;;;;5.60;3.77;;;;;;;;;;5118117;28;20734;-75
2023/09/03 05:20:30;;;;;;;5.43;3.77;;;;;;;;;;5117943;28;20229;-75
2023/09/03 05:22:58;;;;;;;4.53;3.60;;;;;;;;;;5118072;28;20201;-75
2023/09/03 05:25:26;;;;;;;6.77;3.40;;;;;;;;;;5117653;28;20205;-75
2023/09/03 05:27:54;;;;;;;5.83;3.63;;;;;;;;;;5118264;28;20678;-75
2023/09/03 05:30:25;;;;;;;5.37;3.63;;;;;;;;;;5118233;28;20221;-75
2023/09/03 05:32:53;;;;;;;4.27;3.67;;;;;;;;;;5114213;28;20339;-75
2023/09/03 05:35:21;;;;;;;4.37;3.57;;;;;;;;;;5118206;28;20201;-76
2023/09/03 05:37:49;;;;;;;6.80;3.87;;;;;;;;;;5117849;28;20212;-76
2023/09/03 05:40:17;;;;;;;5.80;3.83;;;;;;;;;;5117840;28;20658;-75
2023/09/03 05:42:45;;;;;;;4.30;3.90;;;;;;;;;;5117931;28;20661;-75
2023/09/03 05:45:13;;;;;;;4.37;3.67;;;;;;;;;;5117756;28;20232;-76
2023/09/03 05:47:43;;;;;;;8.03;4.30;;;;;;;;;;5117894;28;20206;-74
2023/09/03 05:50:11;;;;;;;5.23;3.90;;;;;;;;;;5104245;28;20219;-75
2023/09/03 05:52:39;;;;;;;5.37;4.07;;;;;;;;;;5117132;28;20330;-75
2023/09/03 05:55:08;;;;;;;7.70;3.60;;;;;;;;;;5117202;28;20199;-76
2023/09/03 05:57:37;;;;;;;5.30;3.80;;;;;;;;;;5121643;28;20257;-75
2023/09/03 06:00:06;;;;;;;5.57;4.07;;;;;;;;;;5118355;28;20217;-75
2023/09/03 06:02:34;;;;;;;4.57;3.30;;;;;;;;;;5120923;28;20249;-74
2023/09/03 06:05:04;;;;;;;3.90;3.53;;;;;;;;;;5120947;28;20219;-76
2023/09/03 06:07:32;;;;;;;6.93;3.63;;;;;;;;;;5121140;28;20203;-75
2023/09/03 06:10:01;;;;;;;4.23;3.57;;;;;;;;;;5120754;28;20278;-75
2023/09/03 06:12:29;;;;;;;4.40;3.30;;;;;;;;;;5121300;28;20203;-74
2023/09/03 06:14:57;;;;;;;5.10;3.70;;;;;;;;;;5121257;28;20196;-74
2023/09/03 06:17:25;;;;;;;4.03;3.30;;;;;;;;;;5120246;28;20196;-75
2023/09/03 06:19:53;;;;;;;5.77;3.70;;;;;;;;;;5120766;28;20200;-75
2023/09/03 06:22:23;;;;;;;5.93;3.63;;;;;;;;;;5120512;28;20224;-75
2023/09/03 06:24:51;;;;;;;4.90;3.40;;;;;;;;;;5120514;28;20582;-75
2023/09/03 06:27:19;;;;;;;4.37;3.97;;;;;;;;;;5121084;28;20203;-76
2023/09/03 06:29:50;;;;;;;5.00;4.20;;;;;;;;;;5118476;28;20540;-75
2023/09/03 06:32:21;;;;;;;7.40;4.10;;;;;;;;;;5120578;28;20253;-75
2023/09/03 06:34:52;;;;;;;4.60;3.90;;;;;;;;;;5120650;28;20192;-76
2023/09/03 06:37:20;;;;;;;4.33;3.50;;;;;;;;;;5120430;28;20205;-75
2023/09/03 06:39:49;;;;;;;6.90;3.67;;;;;;;;;;5120309;27;20211;-75
2023/09/03 06:42:18;;;;;;;4.70;4.20;;;;;;;;;;5120544;28;20207;-75
2023/09/03 06:44:46;;;;;;;5.40;4.23;;;;;;;;;;5118044;28;20278;-75
2023/09/03 06:47:14;;;;;;;5.60;4.20;;;;;;;;;;5120376;28;20200;-74
2023/09/03 06:49:45;;;;;;;3.97;3.60;;;;;;;;;;5120424;28;20729;-74
2023/09/03 06:52:13;;;;;;;6.23;3.80;;;;;;;;;;5120589;28;20196;-75
2023/09/03 06:54:43;;;;;;;7.87;4.20;;;;;;;;;;5120561;28;20200;-75
2023/09/03 06:57:13;;;;;;;3.93;3.13;;;;;;;;;;5119592;28;20199;-74
2023/09/03 06:59:56;;;;;;;5.87;4.17;;;;;;;;;;5118498;28;20248;-75
2023/09/03 07:02:24;;;;;;;4.73;4.23;;;;;;;;;;5119919;28;20228;-75
2023/09/03 07:04:53;;;;;;;7.07;4.13;;;;;;;;;;5120022;28;20217;-75
2023/09/03 07:07:21;;;;;;;4.43;3.60;;;;;;;;;;5116094;28;20287;-75
2023/09/03 07:09:49;;;;;;;6.63;4.40;;;;;;;;;;5120037;28;20197;-75
2023/09/03 07:12:19;;;;;;;4.77;4.00;;;;;;;;;;5119879;28;20225;-74
2023/09/03 07:14:47;;;;;;;7.87;3.87;;;;;;;;;;5110355;28;20197;-75
2023/09/03 07:17:15;;;;;;;6.10;4.40;;;;;;;;;;5121386;28;20206;-76
2023/09/03 07:19:43;;;;;;;5.70;3.97;;;;;;;;;;5120031;28;20255;-75
2023/09/03 07:22:11;;;;;;;5.07;4.23;;;;;;;;;;5120189;28;20204;-75
2023/09/03 07:24:39;;;;;;;4.73;4.27;;;;;;;;;;5120084;28;20260;-75
2023/09/03 07:27:07;;;;;;;6.30;4.50;;;;;;;;;;5120214;28;20230;-75
2023/09/03 07:29:37;;;;;;;5.93;5.30;;;;;;;;;;5120070;28;20293;-75
2023/09/03 07:32:05;;;;;;;6.67;4.50;;;;;;;;;;5117239;28;20206;-75
2023/09/03 07:34:33;;;;;;;6.07;4.30;;;;;;;;;;5120014;28;20665;-75
2023/09/03 07:37:01;;;;;;;8.63;4.47;;;;;;;;;;5119923;28;20205;-74
2023/09/03 07:39:29;;;;;;;7.43;4.30;;;;;;;;;;5119654;28;20207;-73
2023/09/03 07:41:57;;;;;;;18.00;8.40;;;;;;;;;;5119557;28;20287;-67
2023/09/03 07:44:25;;;;;;;8.17;5.37;;;;;;;;;;5119315;28;20618;-67
2023/09/03 07:46:54;;;;;;;7.00;5.53;;;;;;;;;;5119669;28;20247;-69
2023/09/03 07:49:23;;;;;;;8.50;5.80;;;;;;;;;;5119436;28;20691;-69
2023/09/03 07:51:51;;;;;;;7.73;5.43;;;;;;;;;;5119679;28;20221;-68
2023/09/03 07:54:19;;;;;;;18.53;7.53;;;;;;;;;;5119157;28;20225;-70
2023/09/03 07:56:47;;;;;;;8.97;5.87;;;;;;;;;;5119688;28;20208;-69
2023/09/03 07:59:15;;;;;;;7.37;4.70;;;;;;;;;;5119482;28;20258;-69
2023/09/03 08:01:43;;;;;;;9.87;6.60;;;;;;;;;;5120270;28;20240;-70
2023/09/03 08:04:13;;;;;;;10.00;7.77;;;;;;;;;;5119442;28;20544;-69
2023/09/03 08:06:41;;;;;;;7.50;5.37;;;;;;;;;;5119470;28;20320;-69
2023/09/03 08:09:10;;;;;;;6.50;5.27;;;;;;;;;;5118348;28;20226;-71
2023/09/03 08:11:38;;;;;;;6.83;5.37;;;;;;;;;;5111950;28;20219;-68
2023/09/03 08:14:06;;;;;;;5.73;4.60;;;;;;;;;;5119288;28;20206;-67
2023/09/03 08:16:34;;;;;;;11.83;9.03;;;;;;;;;;5115644;28;20233;-68
2023/09/03 08:19:02;;;;;;;10.83;8.40;;;;;;;;;;5118025;28;20282;-71
2023/09/03 08:21:32;;;;;;;6.83;5.30;;;;;;;;;;5118698;28;20304;-71
2023/09/03 08:24:00;;;;;;;5.80;4.97;;;;;;;;;;5118529;28;20206;-71
2023/09/03 08:26:28;;;;;;;8.10;5.10;;;;;;;;;;5118820;28;20241;-69
2023/09/03 08:28:56;;;;;;;9.70;5.53;;;;;;;;;;5116712;28;20650;-69
2023/09/03 08:31:24;;;;;;;9.97;6.97;;;;;;;;;;5110033;27;20690;-68
2023/09/03 08:33:53;;;;;;;7.73;6.10;;;;;;;;;;5115299;28;20576;-68
2023/09/03 08:36:22;;;;;;;7.37;5.10;;;;;;;;;;5108166;28;20278;-68
2023/09/03 08:38:53;;;;;;;6.20;4.47;;;;;;;;;;5108669;28;20225;-68
2023/09/03 08:41:22;;;;;;;6.10;4.33;;;;;;;;;;5118204;28;20258;-68
2023/09/03 08:43:54;;;;;;;5.43;4.13;;;;;;;;;;5118115;28;20565;-68
2023/09/03 08:46:24;;;;;;;7.37;4.13;;;;;;;;;;5108286;28;20228;-68
2023/09/03 08:48:54;;;;;;;5.20;3.73;;;;;;;;;;5107462;28;20247;-68
2023/09/03 08:51:22;;;;;;;6.90;4.37;;;;;;;;;;5117634;28;20220;-68
2023/09/03 08:53:52;;;;;;;8.93;4.10;;;;;;;;;;5117928;28;20211;-68
2023/09/03 08:56:21;;;;;;;3.43;3.03;;;;;;;;;;5118152;28;20205;-72
2023/09/03 08:58:49;;;;;;;7.50;3.50;;;;;;;;;;5117807;28;20605;-74
2023/09/03 09:01:17;;;;;;;4.93;4.17;;;;;;;;;;5118845;27;20225;-72
2023/09/03 09:03:46;;;;;;;7.23;4.47;;;;;;;;;;5109819;28;20206;-73
2023/09/03 09:06:14;;;;;;;3.50;3.10;;;;;;;;;;5118043;28;20720;-72
2023/09/03 09:08:43;;;;;;;6.40;3.40;;;;;;;;;;5117842;28;20205;-71
2023/09/03 09:11:14;;;;;;;4.37;3.97;;;;;;;;;;5106370;28;20221;-79
2023/09/03 09:13:43;;;;;;;4.97;3.83;;;;;;;;;;5115242;28;20656;-78
2023/09/03 09:16:11;;;;;;;6.93;3.80;;;;;;;;;;5118171;28;20235;-77
2023/09/03 09:18:42;;;;;;;7.03;4.73;;;;;;;;;;5118235;28;20283;-76
2023/09/03 09:21:10;;;;;;;6.63;4.03;;;;;;;;;;5118573;28;20228;-77
2023/09/03 09:23:38;;;;;;;5.77;3.93;;;;;;;;;;5118066;28;20210;-75
2023/09/03 09:26:17;;;;;;;4.13;3.73;;;;;;;;;;5118201;28;20227;-77
2023/09/03 09:28:57;;;;;;;7.03;4.17;;;;;;;;;;5118005;28;20574;-73
2023/09/03 09:31:29;;;;;;;11.23;8.57;;;;;;;;;;5119018;28;20260;-77
2023/09/03 09:33:58;;;;;;;11.00;6.63;;;;;;;;;;5105458;28;20205;-74
2023/09/03 09:36:26;;;;;;;11.00;5.80;;;;;;;;;;5121115;28;20207;-75
2023/09/03 09:39:04;;;;;;;5.87;5.17;;;;;;;;;;5115420;28;20197;-73
2023/09/03 09:41:37;;;;;;;10.73;6.27;;;;;;;;;;5118730;28;20241;-73
2023/09/03 09:44:10;;;;;;;8.17;5.03;;;;;;;;;;5122073;28;20253;-74
2023/09/03 09:46:39;;;;;;;6.25;4.57;;;;;;;;;;5122027;27;20224;-73
2023/09/03 09:49:07;;;;;;;5.05;4.35;;;;;;;;;;5121823;28;20257;-73
2023/09/03 09:51:35;;;;;;;6.35;3.65;;;;;;;;;;5121103;28;20684;-75
2023/09/03 09:54:03;;;;;;;4.80;3.22;;;;;;;;;;5121177;28;20209;-73
2023/09/03 09:56:34;;;;;;;5.33;3.90;;;;;;;;;;5119722;28;20679;-76
2023/09/03 09:59:04;;;;;;;4.85;3.20;;;;;;;;;;5105976;28;20240;-76
2023/09/03 10:01:45;;;;;;;3.88;3.00;;;;;;;;;;5114436;28;20263;-76
2023/09/03 10:04:13;;;;;;;3.65;3.20;;;;;;;;;;5116764;28;20206;-76
2023/09/03 10:06:41;;;;;;;5.88;3.70;;;;;;;;;;5106592;28;20222;-77
2023/09/03 10:09:10;;;;;;;4.30;2.80;;;;;;;;;;5121311;27;20230;-76
2023/09/03 10:11:38;;;;;;;6.75;3.20;;;;;;;;;;5119975;27;20232;-77
2023/09/03 10:14:07;;;;;;;3.65;3.35;;;;;;;;;;5121291;28;20575;-76
2023/09/03 10:16:35;;;;;;;9.80;3.60;;;;;;;;;;5121075;28;20208;-76
2023/09/03 10:19:05;;;;;;;5.93;3.50;;;;;;;;;;5116922;28;20204;-76
2023/09/03 10:21:33;;;;;;;4.07;2.97;;;;;;;;;;5121210;28;20232;-75
2023/09/03 10:24:21;;;;;;;3.60;3.15;;;;;;;;;;5121327;28;20218;-75
2023/09/03 10:26:52;;;;;;;4.53;2.90;;;;;;;;;;5121366;28;20226;-77
2023/09/03 10:29:23;;;;;;;3.42;2.78;;;;;;;;;;5117128;28;20232;-75
2023/09/03 10:31:54;;;;;;;3.42;2.80;;;;;;;;;;5114216;28;20229;-74
2023/09/03 10:34:22;;;;;;;4.60;2.85;;;;;;;;;;5107171;28;20220;-74
2023/09/03 10:37:03;;;;;;;3.03;2.75;;;;;;;;;;5120827;28;20642;-76
2023/09/03 10:39:31;;;;;;;2.85;2.65;;;;;;;;;;5120682;28;20215;-75
2023/09/03 10:42:24;;;;;;;16.58;9.30;;;;;;;;;;5116326;28;20212;-77
2023/09/03 10:44:54;;;;;;;6.82;3.33;;;;;;;;;;5089067;28;20570;-76
2023/09/03 10:47:22;;;;;;;6.18;2.60;;;;;;;;;;5110491;28;20225;-77
2023/09/03 10:49:51;;;;;;;5.55;3.28;;;;;;;;;;5117453;28;20589;-77
2023/09/03 10:52:41;;;;;;;2.97;2.67;;;;;;;;;;5115910;28;20210;-78
2023/09/03 10:55:16;;;;;;;6.78;3.10;;;;;;;;;;5106299;28;20210;-77
2023/09/03 10:57:45;;;;;;;4.00;3.00;;;;;;;;;;5120678;28;20200;-77
2023/09/03 11:00:18;;;;;;;4.35;3.08;;;;;;;;;;5117497;28;20303;-75
2023/09/03 11:02:46;;;;;;;4.30;2.92;;;;;;;;;;5114961;28;20233;-75
2023/09/03 11:05:20;;;;;;;8.25;4.05;;;;;;;;;;5103396;28;20227;-75
2023/09/03 11:07:49;;;;;;;5.80;3.53;;;;;;;;;;5119918;28;20264;-75
2023/09/03 11:10:35;;;;;;;9.57;6.22;;;;;;;;;;5120046;28;20224;-74
2023/09/03 11:13:04;;;;;;;5.50;3.70;;;;;;;;;;5111360;28;20291;-75
2023/09/03 11:15:34;;;;;;;4.65;3.47;;;;;;;;;;5120124;28;20202;-74
2023/09/03 11:18:03;;;;;;;4.25;3.08;;;;;;;;;;5120359;28;20205;-73
2023/09/03 11:20:31;;;;;;;3.72;3.30;;;;;;;;;;5119848;28;20699;-73
2023/09/03 11:23:17;;;;;;;4.82;2.80;;;;;;;;;;5119763;28;20237;-74
2023/09/03 11:25:45;;;;;;;6.43;4.50;;;;;;;;;;5120076;28;20203;-73
2023/09/03 11:28:14;;;;;;;6.25;5.25;;;;;;;;;;5119906;28;20238;-73
2023/09/03 11:30:44;;;;;;;4.00;2.70;;;;;;;;;;5119959;28;20227;-75
2023/09/03 11:33:24;;;;;;;4.40;3.20;;;;;;;;;;5118765;28;20206;-74
2023/09/03 11:35:53;;;;;;;5.73;3.20;;;;;;;;;;5120021;28;20215;-75
2023/09/03 11:38:22;;;;;;;3.20;2.90;;;;;;;;;;5119546;28;20227;-75
2023/09/03 11:40:53;;;;;;;6.17;3.23;;;;;;;;;;5119566;28;20221;-74
2023/09/03 11:43:21;;;;;;;3.38;2.95;;;;;;;;;;5118044;28;20250;-74
2023/09/03 11:45:51;;;;;;;3.80;2.58;;;;;;;;;;5118344;28;20289;-74
2023/09/03 11:48:25;;;;;;;4.93;2.70;;;;;;;;;;5118199;28;20239;-73
2023/09/03 11:50:53;;;;;;;3.53;2.60;;;;;;;;;;5117797;28;20720;-72
2023/09/03 11:53:22;;;;;;;5.43;2.90;;;;;;;;;;5116397;28;20257;-75
2023/09/03 11:55:53;;;;;;;5.15;2.90;;;;;;;;;;5117940;28;20635;-74
2023/09/03 11:58:22;;;;;;;5.53;2.90;;;;;;;;;;5119636;27;20203;-73
2023/09/03 12:00:52;;;;;;;4.43;3.13;;;;;;;;;;5119377;28;20256;-74
2023/09/03 12:03:20;;;;;;;6.88;3.00;;;;;;;;;;5118939;28;20228;-70
2023/09/03 12:05:49;;;;;;;3.53;2.78;;;;;;;;;;5119229;28;20211;-69
2023/09/03 12:08:17;;;;;;;4.00;2.92;;;;;;;;;;5118872;28;20235;-74
2023/09/03 12:10:48;;;;;;;5.55;2.75;;;;;;;;;;5118809;28;20255;-70
2023/09/03 12:13:28;;;;;;;4.15;2.78;;;;;;;;;;5118937;28;20569;-72
2023/09/03 12:16:04;;;;;;;4.70;3.50;;;;;;;;;;5119322;28;20201;-69
2023/09/03 12:18:32;;;;;;;3.70;2.58;;;;;;;;;;5118785;28;20207;-72
2023/09/03 12:21:00;;;;;;;5.78;2.90;;;;;;;;;;5118974;28;20323;-74
2023/09/03 12:23:28;;;;;;;3.55;2.75;;;;;;;;;;5118778;28;20211;-69
2023/09/03 12:25:56;;;;;;;3.67;2.38;;;;;;;;;;5118773;28;20568;-68
2023/09/03 12:28:35;;;;;;;4.03;2.58;;;;;;;;;;5118480;28;20296;-68
2023/09/03 12:31:05;;;;;;;3.42;2.35;;;;;;;;;;5118354;28;20261;-66
2023/09/03 12:33:47;;;;;;;3.25;2.60;;;;;;;;;;5117789;28;20211;-66
2023/09/03 12:36:15;;;;;;;5.78;2.45;;;;;;;;;;5118528;28;20573;-68
2023/09/03 12:38:51;;;;;;;2.65;2.38;;;;;;;;;;5118476;28;20207;-68
2023/09/03 12:41:20;;;;;;;4.80;2.72;;;;;;;;;;5118553;28;20261;-68
2023/09/03 12:43:48;;;;;;;3.10;2.80;;;;;;;;;;5118578;28;20207;-68
2023/09/03 12:46:17;;;;;;;4.00;3.10;;;;;;;;;;5118575;28;20204;-68
2023/09/03 12:48:45;;;;;;;4.63;2.75;;;;;;;;;;5118231;28;20224;-68
2023/09/03 12:51:15;;;;;;;5.90;2.95;;;;;;;;;;5118527;28;20282;-67
2023/09/03 12:53:44;;;;;;;3.55;2.42;;;;;;;;;;5117989;28;20675;-65
2023/09/03 12:56:13;;;;;;;2.75;2.47;;;;;;;;;;5118477;27;20219;-66
2023/09/03 12:58:41;;;;;;;3.15;2.20;;;;;;;;;;5118197;28;20563;-66
2023/09/03 13:01:10;;;;;;;2.70;2.50;;;;;;;;;;5104719;28;20232;-66
2023/09/03 13:03:40;;;;;;;3.33;2.70;;;;;;;;;;5118092;28;20699;-66
2023/09/03 13:06:09;;;;;;;3.17;1.90;;;;;;;;;;5117889;28;20231;-66
2023/09/03 13:08:37;;;;;;;2.53;2.20;;;;;;;;;;5117944;28;20231;-67
2023/09/03 13:11:05;;;;;;;2.80;2.20;;;;;;;;;;5118054;28;20637;-66
2023/09/03 13:13:33;;;;;;;5.25;2.53;;;;;;;;;;5117974;28;20620;-66
2023/09/03 13:16:02;;;;;;;3.70;2.42;;;;;;;;;;5118332;28;20204;-66
2023/09/03 13:18:31;;;;;;;3.50;2.47;;;;;;;;;;5118077;28;20620;-66
2023/09/03 13:21:00;;;;;;;5.15;2.63;;;;;;;;;;5117842;28;20252;-66
2023/09/03 13:23:28;;;;;;;3.25;2.22;;;;;;;;;;5117902;28;20208;-68
2023/09/03 13:25:56;;;;;;;3.33;2.20;;;;;;;;;;5118357;28;20201;-67
2023/09/03 13:28:24;;;;;;;3.28;2.00;;;;;;;;;;5118185;28;20306;-66
2023/09/03 13:30:52;;;;;;;3.95;2.00;;;;;;;;;;5118245;28;20265;-66
2023/09/03 13:33:34;;;;;;;4.10;2.58;;;;;;;;;;5117886;28;20204;-66
2023/09/03 13:36:06;;;;;;;4.00;2.47;;;;;;;;;;5118129;28;20219;-67
2023/09/03 13:38:35;;;;;;;3.13;2.05;;;;;;;;;;5117544;28;20603;-68
2023/09/03 13:41:03;;;;;;;1.90;1.80;;;;;;;;;;5117648;28;20225;-68
2023/09/03 13:43:31;;;;;;;3.15;2.80;;;;;;;;;;5117881;28;20212;-67
2023/09/03 13:46:00;;;;;;;2.70;2.28;;;;;;;;;;5118221;28;20204;-67
2023/09/03 13:48:29;;;;;;;3.60;2.33;;;;;;;;;;5117796;28;20228;-68
2023/09/03 13:50:57;;;;;;;3.78;2.47;;;;;;;;;;5117875;28;20221;-67
2023/09/03 13:53:26;;;;;;;4.03;2.63;;;;;;;;;;5117508;28;20660;-66
2023/09/03 13:56:02;;;;;;;3.53;2.30;;;;;;;;;;5118013;28;20205;-68
2023/09/03 13:58:30;;;;;;;2.33;2.10;;;;;;;;;;5118087;28;20207;-67
2023/09/03 14:00:58;;;;;;;4.05;2.30;;;;;;;;;;5117790;28;20221;-66
2023/09/03 14:03:26;;;;;;;3.63;2.40;;;;;;;;;;5117576;28;20636;-67
2023/09/03 14:06:03;;;;;;;2.92;2.25;;;;;;;;;;5117531;28;20728;-67
2023/09/03 14:08:32;;;;;;;2.55;2.20;;;;;;;;;;5117243;28;20227;-68
2023/09/03 14:11:00;;;;;;;2.45;2.25;;;;;;;;;;5117827;28;20227;-68
2023/09/03 14:13:28;;;;;;;2.67;2.47;;;;;;;;;;5117487;28;20280;-66
2023/09/03 14:15:57;;;;;;;2.70;2.38;;;;;;;;;;5117797;28;20208;-67
2023/09/03 14:18:27;;;;;;;3.08;2.50;;;;;;;;;;5121134;28;20196;-69
2023/09/03 14:20:56;;;;;;;2.72;2.53;;;;;;;;;;5121197;28;20236;-68
2023/09/03 14:23:24;;;;;;;4.13;2.40;;;;;;;;;;5120787;28;20286;-68
2023/09/03 14:25:54;;;;;;;2.35;2.10;;;;;;;;;;5121388;28;20212;-68
2023/09/03 14:28:22;;;;;;;4.20;2.35;;;;;;;;;;5121800;28;20228;-68
2023/09/03 14:30:50;;;;;;;2.67;2.45;;;;;;;;;;5121337;28;20229;-66
2023/09/03 14:33:18;;;;;;;4.63;2.15;;;;;;;;;;5120514;28;20209;-66
2023/09/03 14:35:50;;;;;;;2.45;2.25;;;;;;;;;;5121012;28;20208;-68
2023/09/03 14:38:18;;;;;;;2.95;2.53;;;;;;;;;;5120500;28;20664;-66
2023/09/03 14:40:49;;;;;;;2.03;1.92;;;;;;;;;;5120812;28;20227;-66
2023/09/03 14:43:19;;;;;;;5.47;2.33;;;;;;;;;;5120604;28;20279;-66
2023/09/03 14:45:47;;;;;;;48.33;40.67;;;;;;;;;;5120740;28;20223;-66
2023/09/03 14:48:15;;;;;;;9.32;4.97;;;;;;;;;;5120823;28;20239;-67
2023/09/03 14:50:43;;;;;;;3.35;2.80;;;;;;;;;;5120395;28;20710;-66
2023/09/03 14:53:11;;;;;;;6.57;2.60;;;;;;;;;;5120245;28;20209;-66
2023/09/03 14:55:42;;;;;;;2.72;2.30;;;;;;;;;;5120698;28;20208;-68
2023/09/03 14:58:10;;;;;;;2.38;2.17;;;;;;;;;;5120767;28;20211;-68